Time;durP1;ratioP1;P1;durP2;ratioP2;P2;SDS_P1;SDS_P2;PMS_P1;PMS_P2;Temp;Humidity;BMP_temperature;BMP_pressure;BME280_temperature;BME280_humidity;BME280_pressure;Samples;Min_cycle;Max_cycle;Signal;HPM_P1;HPM_P2
2022/06/09 00:01:34;;;;;;;25.70;12.68;;;;;;;;;;5076054;28;20571;-61
2022/06/09 00:04:08;;;;;;;22.95;12.10;;;;;;;;;;5092579;28;20043;-61
2022/06/09 00:06:40;;;;;;;27.17;13.00;;;;;;;;;;5095125;28;20036;-62
2022/06/09 00:09:06;;;;;;;29.80;11.63;;;;;;;;;;5091184;28;20270;-61
2022/06/09 00:11:34;;;;;;;30.88;13.20;;;;;;;;;;5092632;28;20027;-62
2022/06/09 00:14:01;;;;;;;35.67;12.57;;;;;;;;;;5093163;28;20048;-61
2022/06/09 00:16:27;;;;;;;33.65;14.13;;;;;;;;;;5079506;28;20048;-62
2022/06/09 00:18:53;;;;;;;28.65;12.30;;;;;;;;;;5099550;28;20035;-61
2022/06/09 00:21:21;;;;;;;20.15;11.60;;;;;;;;;;5094298;28;20104;-62
2022/06/09 00:23:47;;;;;;;20.42;12.63;;;;;;;;;;5093228;28;20090;-62
2022/06/09 00:26:13;;;;;;;29.33;12.57;;;;;;;;;;5091428;28;20036;-61
2022/06/09 00:28:39;;;;;;;27.17;13.90;;;;;;;;;;5091634;28;20036;-61
2022/06/09 00:31:05;;;;;;;25.27;13.85;;;;;;;;;;5089282;28;20497;-62
2022/06/09 00:33:32;;;;;;;28.33;18.05;;;;;;;;;;5091572;28;20197;-62
2022/06/09 00:35:58;;;;;;;30.77;15.77;;;;;;;;;;5099024;28;20051;-61
2022/06/09 00:38:24;;;;;;;33.70;17.80;;;;;;;;;;5093510;28;20068;-61
2022/06/09 00:40:50;;;;;;;36.67;16.90;;;;;;;;;;5091249;28;20043;-61
2022/06/09 00:43:16;;;;;;;26.88;15.68;;;;;;;;;;5084813;28;20119;-61
2022/06/09 00:45:50;;;;;;;28.95;16.95;;;;;;;;;;5089058;28;20051;-62
2022/06/09 00:48:25;;;;;;;33.72;17.40;;;;;;;;;;5089163;28;20043;-61
2022/06/09 00:50:54;;;;;;;32.72;15.77;;;;;;;;;;5089181;28;20040;-61
2022/06/09 00:53:23;;;;;;;34.95;17.55;;;;;;;;;;5091028;28;20447;-61
2022/06/09 00:55:50;;;;;;;28.75;14.98;;;;;;;;;;5098123;28;20032;-61
2022/06/09 00:58:17;;;;;;;30.92;18.08;;;;;;;;;;5092454;28;20036;-61
2022/06/09 01:00:56;;;;;;;27.90;17.50;;;;;;;;;;5095242;28;20032;-62
2022/06/09 01:03:24;;;;;;;26.92;15.82;;;;;;;;;;5080034;28;20032;-61
2022/06/09 01:05:50;;;;;;;27.17;16.35;;;;;;;;;;5085642;28;20129;-61
2022/06/09 01:08:17;;;;;;;29.45;15.77;;;;;;;;;;5073532;28;20098;-61
2022/06/09 01:10:43;;;;;;;28.65;15.15;;;;;;;;;;5093872;28;20122;-61
2022/06/09 01:13:09;;;;;;;25.40;16.25;;;;;;;;;;5090931;28;20073;-61
2022/06/09 01:15:44;;;;;;;30.13;15.45;;;;;;;;;;5079129;28;20047;-61
2022/06/09 01:18:11;;;;;;;30.25;15.15;;;;;;;;;;5082444;28;20036;-62
2022/06/09 01:20:40;;;;;;;25.83;15.63;;;;;;;;;;5093767;28;20528;-61
2022/06/09 01:23:24;;;;;;;31.27;16.88;;;;;;;;;;5100487;28;20102;-61
2022/06/09 01:25:54;;;;;;;26.38;16.25;;;;;;;;;;5095510;28;20046;-61
2022/06/09 01:28:33;;;;;;;35.47;17.85;;;;;;;;;;5085319;28;20446;-61
2022/06/09 01:30:59;;;;;;;30.13;17.50;;;;;;;;;;5105843;28;20145;-62
2022/06/09 01:33:44;;;;;;;28.38;16.65;;;;;;;;;;5081680;28;20469;-61
2022/06/09 01:36:15;;;;;;;30.42;16.77;;;;;;;;;;5086092;28;20039;-62
2022/06/09 01:38:48;;;;;;;27.02;18.55;;;;;;;;;;5090773;28;20552;-61
2022/06/09 01:41:17;;;;;;;25.60;13.70;;;;;;;;;;5088489;28;20135;-61
2022/06/09 01:43:46;;;;;;;29.92;15.57;;;;;;;;;;5088166;28;20482;-61
2022/06/09 01:46:33;;;;;;;24.17;13.43;;;;;;;;;;5105637;28;20087;-62
2022/06/09 01:49:02;;;;;;;26.27;13.32;;;;;;;;;;5090943;28;20119;-62
2022/06/09 01:51:30;;;;;;;34.90;14.70;;;;;;;;;;5089416;28;20127;-61
2022/06/09 01:53:58;;;;;;;23.55;12.23;;;;;;;;;;5091469;28;20035;-62
2022/06/09 01:56:45;;;;;;;24.98;12.93;;;;;;;;;;5100887;27;20050;-61
2022/06/09 01:59:19;;;;;;;34.83;12.27;;;;;;;;;;5086584;28;20040;-62
2022/06/09 02:01:49;;;;;;;28.50;13.82;;;;;;;;;;5084894;28;20046;-61
2022/06/09 02:04:20;;;;;;;28.38;12.85;;;;;;;;;;5091386;28;20144;-61
2022/06/09 02:06:49;;;;;;;31.02;12.57;;;;;;;;;;5094238;28;20047;-61
2022/06/09 02:09:16;;;;;;;23.10;12.63;;;;;;;;;;5083345;28;20040;-62
2022/06/09 02:12:03;;;;;;;20.83;12.45;;;;;;;;;;5103049;28;20040;-62
2022/06/09 02:14:30;;;;;;;24.95;13.07;;;;;;;;;;5090295;28;20036;-62
2022/06/09 02:16:57;;;;;;;26.80;14.63;;;;;;;;;;5093343;28;20040;-62
2022/06/09 02:19:23;;;;;;;23.50;13.30;;;;;;;;;;5091034;28;20039;-61
2022/06/09 02:21:49;;;;;;;25.40;13.98;;;;;;;;;;5092280;28;20463;-62
2022/06/09 02:24:16;;;;;;;24.90;13.52;;;;;;;;;;5097496;28;20040;-62
2022/06/09 02:26:42;;;;;;;23.55;13.02;;;;;;;;;;5093061;28;20032;-61
2022/06/09 02:29:09;;;;;;;22.92;12.57;;;;;;;;;;5098097;28;20135;-61
2022/06/09 02:31:35;;;;;;;25.35;13.10;;;;;;;;;;5080620;28;20097;-62
2022/06/09 02:34:01;;;;;;;25.60;13.23;;;;;;;;;;5085738;28;20044;-62
2022/06/09 02:36:27;;;;;;;18.23;12.55;;;;;;;;;;5082217;28;20075;-62
2022/06/09 02:38:54;;;;;;;22.27;13.95;;;;;;;;;;5094997;28;20043;-62
2022/06/09 02:41:20;;;;;;;23.30;12.63;;;;;;;;;;5088824;28;20670;-62
2022/06/09 02:43:46;;;;;;;21.52;11.95;;;;;;;;;;5087453;28;20093;-61
2022/06/09 02:46:12;;;;;;;20.80;12.70;;;;;;;;;;5082768;28;20127;-62
2022/06/09 02:48:40;;;;;;;20.73;11.10;;;;;;;;;;5095766;28;20051;-61
2022/06/09 02:51:23;;;;;;;20.90;13.52;;;;;;;;;;5088621;28;20046;-61
2022/06/09 02:53:49;;;;;;;22.60;11.95;;;;;;;;;;5086522;28;20052;-61
2022/06/09 02:56:15;;;;;;;20.77;12.98;;;;;;;;;;5083892;28;20311;-62
2022/06/09 02:58:41;;;;;;;22.33;12.88;;;;;;;;;;5089215;28;20046;-61
2022/06/09 03:01:08;;;;;;;19.13;11.40;;;;;;;;;;5092784;28;20194;-61
2022/06/09 03:03:34;;;;;;;18.67;10.82;;;;;;;;;;5098684;28;20685;-62
2022/06/09 03:06:00;;;;;;;15.13;11.32;;;;;;;;;;5089810;28;20373;-61
2022/06/09 03:08:26;;;;;;;24.33;12.45;;;;;;;;;;5089668;28;20033;-62
2022/06/09 03:10:52;;;;;;;24.58;12.32;;;;;;;;;;5090375;28;20036;-62
2022/06/09 03:13:19;;;;;;;15.50;11.82;;;;;;;;;;5098530;28;20042;-62
2022/06/09 03:15:47;;;;;;;14.65;11.55;;;;;;;;;;5100228;28;20051;-61
2022/06/09 03:18:14;;;;;;;14.63;12.40;;;;;;;;;;5099752;28;20047;-62
2022/06/09 03:20:40;;;;;;;19.00;11.40;;;;;;;;;;5097488;28;20032;-61
2022/06/09 03:23:07;;;;;;;18.65;12.65;;;;;;;;;;5087060;28;20118;-62
2022/06/09 03:25:33;;;;;;;16.35;11.65;;;;;;;;;;5086441;28;20044;-61
2022/06/09 03:28:00;;;;;;;20.15;12.00;;;;;;;;;;5101737;28;20036;-61
2022/06/09 03:30:26;;;;;;;23.77;11.15;;;;;;;;;;5104244;28;20085;-62
2022/06/09 03:32:53;;;;;;;17.88;10.63;;;;;;;;;;5096838;28;20055;-62
2022/06/09 03:35:19;;;;;;;19.55;11.10;;;;;;;;;;5083453;28;20256;-62
2022/06/09 03:37:45;;;;;;;15.93;12.70;;;;;;;;;;5084885;28;20044;-61
2022/06/09 03:40:13;;;;;;;16.42;11.27;;;;;;;;;;5091458;28;20111;-61
2022/06/09 03:42:39;;;;;;;17.13;12.43;;;;;;;;;;5090106;28;20043;-62
2022/06/09 03:45:06;;;;;;;23.80;12.60;;;;;;;;;;5089914;28;20044;-61
2022/06/09 03:47:32;;;;;;;20.55;14.13;;;;;;;;;;5090794;28;20060;-62
2022/06/09 03:49:58;;;;;;;16.73;12.70;;;;;;;;;;5084467;28;20496;-61
2022/06/09 03:52:24;;;;;;;23.92;14.48;;;;;;;;;;5087133;28;20035;-62
2022/06/09 03:54:50;;;;;;;19.65;13.63;;;;;;;;;;5090871;28;20424;-62
2022/06/09 03:57:16;;;;;;;26.15;14.50;;;;;;;;;;5089973;28;20052;-61
2022/06/09 03:59:42;;;;;;;19.08;15.60;;;;;;;;;;5099137;28;20039;-61
2022/06/09 04:02:09;;;;;;;26.67;14.80;;;;;;;;;;5082257;28;20416;-62
2022/06/09 04:04:35;;;;;;;22.10;14.88;;;;;;;;;;5081887;28;20487;-61
2022/06/09 04:07:01;;;;;;;29.85;15.70;;;;;;;;;;5092640;28;20383;-62
2022/06/09 04:09:27;;;;;;;18.23;14.82;;;;;;;;;;5096127;28;20099;-61
2022/06/09 04:11:53;;;;;;;22.50;16.17;;;;;;;;;;5083241;28;20504;-62
2022/06/09 04:14:20;;;;;;;27.70;16.80;;;;;;;;;;5087997;28;20043;-62
2022/06/09 04:16:48;;;;;;;23.27;18.17;;;;;;;;;;5084336;28;20142;-61
2022/06/09 04:19:16;;;;;;;27.25;19.05;;;;;;;;;;5092812;28;20070;-61
2022/06/09 04:21:43;;;;;;;23.73;19.55;;;;;;;;;;5089110;28;20451;-62
2022/06/09 04:24:09;;;;;;;24.00;18.13;;;;;;;;;;5084476;28;20397;-62
2022/06/09 04:26:37;;;;;;;26.67;19.95;;;;;;;;;;5083602;28;20036;-62
2022/06/09 04:29:05;;;;;;;25.67;20.30;;;;;;;;;;5088385;28;20135;-61
2022/06/09 04:31:32;;;;;;;25.08;19.15;;;;;;;;;;5082792;28;20032;-61
2022/06/09 04:33:58;;;;;;;27.55;19.45;;;;;;;;;;5086060;28;20048;-61
2022/06/09 04:36:24;;;;;;;24.55;19.73;;;;;;;;;;5086007;28;20036;-61
2022/06/09 04:38:51;;;;;;;25.80;19.60;;;;;;;;;;5090360;28;20122;-61
2022/06/09 04:41:17;;;;;;;27.08;20.35;;;;;;;;;;5087386;28;20485;-61
2022/06/09 04:43:45;;;;;;;25.05;18.13;;;;;;;;;;5085984;28;20044;-61
2022/06/09 04:46:12;;;;;;;26.25;19.70;;;;;;;;;;5098494;28;20040;-61
2022/06/09 04:48:39;;;;;;;27.15;20.15;;;;;;;;;;5099695;28;20040;-62
2022/06/09 04:51:06;;;;;;;29.00;20.00;;;;;;;;;;5092027;28;20123;-62
2022/06/09 04:53:33;;;;;;;27.77;18.83;;;;;;;;;;5083936;28;20064;-61
2022/06/09 04:55:59;;;;;;;25.20;19.38;;;;;;;;;;5082267;28;20040;-62
2022/06/09 04:58:26;;;;;;;24.65;16.88;;;;;;;;;;5081952;28;20051;-62
2022/06/09 05:00:52;;;;;;;22.20;17.48;;;;;;;;;;5091439;28;20035;-62
2022/06/09 05:03:20;;;;;;;19.25;16.63;;;;;;;;;;5094316;28;20250;-61
2022/06/09 05:05:47;;;;;;;17.83;14.90;;;;;;;;;;5090362;28;20071;-62
2022/06/09 05:08:13;;;;;;;22.50;17.60;;;;;;;;;;5093740;28;20043;-62
2022/06/09 05:10:41;;;;;;;25.45;17.63;;;;;;;;;;5094894;28;20061;-62
2022/06/09 05:13:08;;;;;;;28.92;20.73;;;;;;;;;;5100268;28;20111;-62
2022/06/09 05:15:38;;;;;;;20.35;16.63;;;;;;;;;;5098206;28;20072;-62
2022/06/09 05:18:05;;;;;;;22.80;17.42;;;;;;;;;;5096993;28;20093;-62
2022/06/09 05:20:31;;;;;;;26.45;17.20;;;;;;;;;;5094004;27;20039;-62
2022/06/09 05:22:58;;;;;;;22.38;17.33;;;;;;;;;;5095715;28;20047;-62
2022/06/09 05:25:24;;;;;;;23.00;17.17;;;;;;;;;;5092058;28;20032;-61
2022/06/09 05:27:51;;;;;;;29.73;18.27;;;;;;;;;;5091515;28;20477;-61
2022/06/09 05:30:21;;;;;;;23.90;17.00;;;;;;;;;;5095689;28;20099;-61
2022/06/09 05:32:48;;;;;;;22.00;18.30;;;;;;;;;;5093875;28;20374;-62
2022/06/09 05:35:15;;;;;;;27.90;16.17;;;;;;;;;;5088409;28;20512;-61
2022/06/09 05:45:56;;;;;;;22.25;15.80;;;;;;;;;;5084431;28;20505;-62
2022/06/09 05:48:23;;;;;;;22.15;16.27;;;;;;;;;;5085153;28;20072;-61
2022/06/09 05:50:50;;;;;;;22.85;15.45;;;;;;;;;;5088372;28;20040;-61
2022/06/09 05:53:16;;;;;;;18.67;14.50;;;;;;;;;;5087121;28;20043;-62
2022/06/09 05:55:42;;;;;;;19.15;12.40;;;;;;;;;;5092260;28;20035;-62
2022/06/09 05:58:08;;;;;;;16.92;13.68;;;;;;;;;;5086998;28;20463;-61
2022/06/09 06:00:35;;;;;;;21.50;15.00;;;;;;;;;;5084984;28;20336;-62
2022/06/09 06:03:01;;;;;;;20.10;12.63;;;;;;;;;;5084621;28;20040;-62
2022/06/09 06:08:12;;;;;;;18.73;14.07;;;;;;;;;;5086449;28;20134;-62
2022/06/09 06:10:38;;;;;;;16.73;12.20;;;;;;;;;;5063769;28;20500;-62
2022/06/09 06:13:04;;;;;;;16.67;11.63;;;;;;;;;;5082546;28;20042;-61
2022/06/09 06:15:31;;;;;;;16.83;11.55;;;;;;;;;;5080164;28;20035;-62
2022/06/09 06:18:02;;;;;;;13.55;10.65;;;;;;;;;;5090349;28;20062;-62
2022/06/09 06:20:29;;;;;;;17.00;11.18;;;;;;;;;;5088197;28;20119;-62
2022/06/09 06:22:55;;;;;;;15.05;10.00;;;;;;;;;;5089637;28;20543;-62
2022/06/09 06:25:22;;;;;;;12.43;9.50;;;;;;;;;;5087208;28;20040;-62
2022/06/09 06:27:48;;;;;;;11.63;9.75;;;;;;;;;;5081022;28;21185;-62
2022/06/09 06:30:14;;;;;;;11.45;8.13;;;;;;;;;;5087226;28;20093;-61
2022/06/09 06:32:40;;;;;;;11.13;7.80;;;;;;;;;;5080533;28;20033;-62
2022/06/09 06:35:07;;;;;;;13.68;9.35;;;;;;;;;;5097270;28;20046;-61
2022/06/09 06:37:33;;;;;;;11.15;8.38;;;;;;;;;;5087412;28;20365;-61
2022/06/09 06:40:00;;;;;;;11.90;8.63;;;;;;;;;;5090600;28;20044;-62
2022/06/09 06:42:26;;;;;;;12.27;7.63;;;;;;;;;;5085373;28;20497;-61
2022/06/09 06:44:52;;;;;;;10.38;6.30;;;;;;;;;;5082818;28;20047;-61
2022/06/09 06:47:18;;;;;;;10.68;6.07;;;;;;;;;;5086479;28;20263;-62
2022/06/09 06:49:44;;;;;;;6.93;5.28;;;;;;;;;;5099823;28;20039;-62
2022/06/09 06:52:11;;;;;;;9.23;4.90;;;;;;;;;;5090538;28;20036;-61
2022/06/09 06:54:37;;;;;;;8.07;4.80;;;;;;;;;;5093724;28;20049;-61
2022/06/09 06:57:05;;;;;;;5.97;3.95;;;;;;;;;;5087665;28;20040;-61
2022/06/09 06:59:32;;;;;;;11.10;4.30;;;;;;;;;;5089710;28;20436;-62
2022/06/09 07:01:59;;;;;;;12.57;4.82;;;;;;;;;;5088554;28;20471;-62
2022/06/09 07:04:25;;;;;;;10.05;3.60;;;;;;;;;;5090882;28;20481;-62
2022/06/09 07:06:51;;;;;;;7.25;3.83;;;;;;;;;;5092184;28;20047;-62
2022/06/09 07:09:17;;;;;;;9.55;3.72;;;;;;;;;;5077948;28;20040;-62
2022/06/09 07:11:45;;;;;;;6.65;2.78;;;;;;;;;;5081965;28;20305;-62
2022/06/09 07:14:11;;;;;;;5.43;3.13;;;;;;;;;;5090399;28;20044;-62
2022/06/09 07:16:37;;;;;;;7.55;2.83;;;;;;;;;;5088671;28;20049;-62
2022/06/09 07:19:04;;;;;;;4.32;2.88;;;;;;;;;;5088992;28;20121;-62
2022/06/09 07:21:30;;;;;;;7.82;3.20;;;;;;;;;;5084638;28;20039;-62
2022/06/09 07:23:57;;;;;;;3.30;2.50;;;;;;;;;;5091215;28;20505;-62
2022/06/09 07:26:23;;;;;;;6.47;3.13;;;;;;;;;;5091472;28;20064;-62
2022/06/09 07:28:49;;;;;;;6.85;2.70;;;;;;;;;;5088331;28;20070;-62
2022/06/09 07:31:15;;;;;;;6.60;2.53;;;;;;;;;;5084748;28;20024;-62
2022/06/09 07:33:41;;;;;;;5.85;1.90;;;;;;;;;;5085856;28;20055;-62
2022/06/09 07:36:16;;;;;;;5.13;2.65;;;;;;;;;;5088020;28;20036;-63
2022/06/09 07:38:42;;;;;;;5.90;2.70;;;;;;;;;;5075703;28;20033;-62
2022/06/09 07:41:09;;;;;;;5.00;2.05;;;;;;;;;;5089476;28;20089;-62
2022/06/09 07:43:35;;;;;;;7.78;2.13;;;;;;;;;;5089792;28;20032;-63
2022/06/09 07:46:02;;;;;;;5.10;2.08;;;;;;;;;;5095220;28;20075;-62
2022/06/09 07:48:28;;;;;;;4.65;2.17;;;;;;;;;;5084641;28;20040;-62
2022/06/09 07:50:55;;;;;;;7.65;2.38;;;;;;;;;;5086754;28;20028;-61
2022/06/09 07:53:22;;;;;;;3.97;2.05;;;;;;;;;;5086388;28;20043;-62
2022/06/09 07:55:48;;;;;;;6.53;1.80;;;;;;;;;;5089994;28;20043;-62
2022/06/09 07:58:16;;;;;;;4.47;2.20;;;;;;;;;;5084671;28;20060;-62
2022/06/09 08:00:42;;;;;;;7.68;2.72;;;;;;;;;;5085387;28;20405;-62
2022/06/09 08:03:09;;;;;;;4.55;2.28;;;;;;;;;;5088524;28;20024;-62
2022/06/09 08:05:35;;;;;;;7.65;2.95;;;;;;;;;;5084793;28;20430;-62
2022/06/09 08:08:02;;;;;;;3.72;1.88;;;;;;;;;;5090996;28;20511;-63
2022/06/09 08:10:29;;;;;;;4.95;2.17;;;;;;;;;;5087847;28;20039;-62
2022/06/09 08:12:56;;;;;;;12.70;2.85;;;;;;;;;;5082915;28;20058;-62
2022/06/09 08:15:27;;;;;;;5.25;3.05;;;;;;;;;;5087497;28;20056;-62
2022/06/09 08:17:53;;;;;;;7.70;2.70;;;;;;;;;;5089216;28;20545;-62
2022/06/09 08:20:19;;;;;;;5.65;2.10;;;;;;;;;;5086795;28;20377;-62
2022/06/09 08:22:46;;;;;;;4.05;2.38;;;;;;;;;;5078453;28;20048;-62
2022/06/09 08:25:13;;;;;;;26.50;8.85;;;;;;;;;;5108795;27;20089;-62
2022/06/09 08:27:40;;;;;;;11.63;3.10;;;;;;;;;;5078784;28;20073;-64
2022/06/09 08:30:08;;;;;;;6.40;2.42;;;;;;;;;;5091383;28;20032;-63
2022/06/09 08:32:34;;;;;;;10.68;3.20;;;;;;;;;;5079592;28;20042;-64
2022/06/09 08:35:00;;;;;;;6.78;2.47;;;;;;;;;;5104470;28;20043;-63
2022/06/09 08:37:26;;;;;;;7.97;2.97;;;;;;;;;;5082524;28;20047;-63
2022/06/09 08:39:53;;;;;;;8.07;3.13;;;;;;;;;;5084786;28;20044;-63
2022/06/09 08:42:22;;;;;;;9.52;3.42;;;;;;;;;;5089911;28;20055;-64
2022/06/09 08:44:57;;;;;;;6.00;2.70;;;;;;;;;;5089604;28;20075;-63
2022/06/09 08:47:36;;;;;;;8.93;2.80;;;;;;;;;;5093456;28;20116;-63
2022/06/09 08:50:08;;;;;;;9.02;2.78;;;;;;;;;;5089251;28;20044;-63
2022/06/09 08:52:41;;;;;;;5.07;2.60;;;;;;;;;;5083967;28;20048;-63
2022/06/09 08:55:18;;;;;;;6.07;2.75;;;;;;;;;;5084976;28;20074;-63
2022/06/09 08:57:45;;;;;;;9.30;3.03;;;;;;;;;;5087799;28;20557;-63
2022/06/09 09:00:13;;;;;;;6.93;2.40;;;;;;;;;;5090949;28;20545;-63
2022/06/09 09:02:45;;;;;;;6.35;2.55;;;;;;;;;;5098224;28;20041;-63
2022/06/09 09:05:18;;;;;;;5.03;2.45;;;;;;;;;;5095950;28;20040;-64
2022/06/09 09:07:44;;;;;;;;;;;;;;;;;;5084661;28;20115;-63
2022/06/09 09:10:16;;;;;;;8.07;2.45;;;;;;;;;;5089595;28;19927;-65
2022/06/09 09:12:45;;;;;;;6.80;2.70;;;;;;;;;;5088009;28;20032;-64
2022/06/09 09:15:26;;;;;;;7.45;2.40;;;;;;;;;;5086357;28;20143;-65
2022/06/09 09:17:58;;;;;;;4.60;2.20;;;;;;;;;;5094240;28;20032;-64
2022/06/09 09:20:27;;;;;;;17.40;3.03;;;;;;;;;;5092021;28;20043;-64
2022/06/09 09:22:53;;;;;;;8.65;3.05;;;;;;;;;;5083262;28;20040;-65
2022/06/09 09:25:27;;;;;;;6.07;2.92;;;;;;;;;;5083302;28;20097;-64
2022/06/09 09:27:53;;;;;;;5.00;2.13;;;;;;;;;;5085877;28;20055;-65
2022/06/09 09:30:21;;;;;;;5.03;3.05;;;;;;;;;;5092863;28;20127;-65
2022/06/09 09:32:49;;;;;;;6.70;2.90;;;;;;;;;;5100322;28;20097;-65
2022/06/09 09:35:23;;;;;;;9.23;2.67;;;;;;;;;;5084906;28;20039;-65
2022/06/09 09:37:54;;;;;;;5.80;2.30;;;;;;;;;;5089981;28;20051;-65
2022/06/09 09:40:28;;;;;;;4.22;2.45;;;;;;;;;;5077256;28;20066;-65
2022/06/09 09:42:56;;;;;;;6.63;2.88;;;;;;;;;;5085619;28;20089;-65
2022/06/09 09:45:34;;;;;;;8.50;2.50;;;;;;;;;;5093578;28;20044;-64
2022/06/09 09:48:02;;;;;;;7.63;2.80;;;;;;;;;;5096558;28;20492;-64
2022/06/09 09:50:35;;;;;;;8.68;3.78;;;;;;;;;;5085363;28;20044;-65
2022/06/09 09:53:01;;;;;;;8.35;2.60;;;;;;;;;;5066133;28;20124;-65
2022/06/09 09:55:35;;;;;;;5.20;2.58;;;;;;;;;;5090147;28;20066;-65
2022/06/09 09:58:17;;;;;;;7.80;3.20;;;;;;;;;;5091467;28;20032;-65
2022/06/09 10:00:43;;;;;;;4.32;2.17;;;;;;;;;;5086169;28;20080;-64
2022/06/09 10:08:54;;;;;;;5.75;1.90;;;;;;;;;;5090312;28;20032;-65
2022/06/09 10:14:30;;;;;;;4.82;2.25;;;;;;;;;;5091176;28;20048;-65
2022/06/09 10:16:56;;;;;;;6.47;2.60;;;;;;;;;;5070179;28;20558;-65
2022/06/09 10:19:25;;;;;;;3.85;2.30;;;;;;;;;;5091312;28;20131;-65
2022/06/09 10:22:03;;;;;;;8.23;2.60;;;;;;;;;;5087744;28;20036;-65
2022/06/09 10:24:38;;;;;;;7.22;2.15;;;;;;;;;;5088737;28;20528;-65
2022/06/09 10:27:05;;;;;;;7.30;1.95;;;;;;;;;;5093309;28;20046;-65
2022/06/09 10:29:36;;;;;;;3.13;1.70;;;;;;;;;;5090990;28;20044;-64
2022/06/09 10:32:14;;;;;;;3.38;1.60;;;;;;;;;;5088385;28;20402;-64
2022/06/09 10:34:53;;;;;;;5.18;2.08;;;;;;;;;;5102534;28;20123;-65
2022/06/09 10:37:25;;;;;;;5.75;1.88;;;;;;;;;;5097695;28;20047;-65
2022/06/09 10:40:03;;;;;;;7.25;3.05;;;;;;;;;;5091162;28;20482;-64
2022/06/09 10:42:35;;;;;;;7.10;2.67;;;;;;;;;;5086991;28;20518;-64
2022/06/09 10:45:14;;;;;;;8.47;3.73;;;;;;;;;;5086931;28;20123;-64
2022/06/09 10:56:44;;;;;;;4.97;3.45;;;;;;;;;;5081515;28;20496;-65
2022/06/09 10:59:14;;;;;;;5.82;2.40;;;;;;;;;;5088368;28;20208;-65
2022/06/09 11:01:40;;;;;;;6.88;2.22;;;;;;;;;;5088529;28;20047;-65
2022/06/09 11:04:11;;;;;;;4.05;2.13;;;;;;;;;;5086677;28;20106;-65
2022/06/09 11:06:56;;;;;;;5.32;1.92;;;;;;;;;;5086905;28;20044;-65
2022/06/09 11:09:44;;;;;;;6.95;2.72;;;;;;;;;;5084998;28;20038;-64
2022/06/09 11:12:14;;;;;;;6.25;2.15;;;;;;;;;;5093426;28;20031;-64
2022/06/09 11:14:59;;;;;;;8.15;2.17;;;;;;;;;;5087152;28;20386;-65
2022/06/09 11:17:36;;;;;;;5.53;2.13;;;;;;;;;;5082059;28;20032;-65
2022/06/09 11:20:21;;;;;;;4.38;2.67;;;;;;;;;;5092752;28;20036;-65
2022/06/09 11:22:56;;;;;;;6.30;2.33;;;;;;;;;;5080810;28;20044;-65
2022/06/09 11:25:26;;;;;;;5.97;3.22;;;;;;;;;;5089588;28;20089;-65
2022/06/09 11:28:02;;;;;;;9.93;3.38;;;;;;;;;;5085159;28;20064;-65
2022/06/09 11:30:48;;;;;;;6.45;2.83;;;;;;;;;;5102101;28;20088;-65
2022/06/09 11:33:26;;;;;;;8.10;3.53;;;;;;;;;;5082851;28;20040;-65
2022/06/09 11:36:01;;;;;;;5.85;2.70;;;;;;;;;;5090209;28;20059;-64
2022/06/09 11:38:34;;;;;;;4.82;2.42;;;;;;;;;;5084227;28;20086;-65
2022/06/09 11:41:13;;;;;;;3.67;2.08;;;;;;;;;;5100719;28;20051;-65
2022/06/09 11:43:53;;;;;;;8.60;3.03;;;;;;;;;;5091436;28;20047;-65
2022/06/09 11:46:23;;;;;;;8.00;2.47;;;;;;;;;;5088441;28;20080;-65
2022/06/09 11:48:52;;;;;;;6.68;2.33;;;;;;;;;;5092752;28;20543;-65
2022/06/09 11:51:20;;;;;;;6.38;2.65;;;;;;;;;;5072672;28;20127;-65
2022/06/09 11:53:48;;;;;;;8.68;3.22;;;;;;;;;;5097001;28;20412;-64
2022/06/09 11:56:33;;;;;;;7.50;2.45;;;;;;;;;;5093929;28;20071;-65
2022/06/09 11:59:04;;;;;;;4.07;2.28;;;;;;;;;;5082825;28;20063;-64
2022/06/09 12:01:33;;;;;;;8.20;3.78;;;;;;;;;;5086085;28;20088;-65
2022/06/09 12:04:07;;;;;;;11.35;2.85;;;;;;;;;;5088506;28;20048;-64
2022/06/09 12:06:52;;;;;;;6.93;2.90;;;;;;;;;;5099098;28;20044;-65
2022/06/09 12:09:44;;;;;;;5.22;2.03;;;;;;;;;;5094255;28;20455;-65
2022/06/09 12:12:28;;;;;;;4.93;2.95;;;;;;;;;;5086869;28;20032;-65
2022/06/09 12:15:13;;;;;;;6.97;2.85;;;;;;;;;;5088895;28;20136;-65
2022/06/09 12:17:54;;;;;;;5.28;2.13;;;;;;;;;;5078938;28;20039;-65
2022/06/09 12:20:40;;;;;;;5.50;2.63;;;;;;;;;;5098401;28;20114;-64
2022/06/09 12:23:24;;;;;;;4.82;2.70;;;;;;;;;;5075828;28;20079;-65
2022/06/09 12:26:11;;;;;;;11.20;2.95;;;;;;;;;;5088316;28;20036;-65
2022/06/09 12:28:47;;;;;;;4.80;2.65;;;;;;;;;;5076421;28;20557;-65
2022/06/09 12:31:15;;;;;;;3.63;2.45;;;;;;;;;;5093840;28;20072;-65
2022/06/09 12:33:56;;;;;;;9.10;2.70;;;;;;;;;;5081301;28;20044;-65
2022/06/09 12:36:40;;;;;;;8.32;2.47;;;;;;;;;;5085188;28;20046;-65
2022/06/09 12:39:18;;;;;;;5.25;2.47;;;;;;;;;;5083097;28;20528;-64
2022/06/09 12:41:45;;;;;;;8.73;2.88;;;;;;;;;;5085100;28;20036;-65
2022/06/09 12:44:24;;;;;;;7.43;2.65;;;;;;;;;;5087830;28;20130;-64
2022/06/09 12:46:55;;;;;;;6.25;2.40;;;;;;;;;;5092709;28;20052;-65
2022/06/09 12:49:26;;;;;;;5.60;2.15;;;;;;;;;;5088592;28;20036;-65
2022/06/09 12:51:53;;;;;;;13.07;2.85;;;;;;;;;;5079513;28;20024;-65
2022/06/09 12:54:30;;;;;;;4.68;2.28;;;;;;;;;;5088326;28;20069;-65
2022/06/09 12:56:59;;;;;;;5.20;1.85;;;;;;;;;;5087096;28;20044;-65
2022/06/09 12:59:33;;;;;;;4.10;2.20;;;;;;;;;;5089402;28;20070;-65
2022/06/09 13:02:17;;;;;;;3.72;1.77;;;;;;;;;;5091914;28;20045;-63
2022/06/09 13:04:50;;;;;;;6.40;2.17;;;;;;;;;;5086312;28;20093;-63
2022/06/09 13:07:22;;;;;;;5.00;3.13;;;;;;;;;;5092843;28;20059;-64
2022/06/09 13:09:59;;;;;;;8.50;2.30;;;;;;;;;;5084935;28;20063;-64
2022/06/09 13:15:25;;;;;;;5.32;2.17;;;;;;;;;;5084803;28;20040;-64
2022/06/09 13:17:52;;;;;;;8.70;2.03;;;;;;;;;;5086989;28;20389;-63
2022/06/09 13:20:20;;;;;;;5.90;2.40;;;;;;;;;;5085007;28;20031;-63
2022/06/09 13:22:47;;;;;;;3.78;1.83;;;;;;;;;;5078710;28;20394;-64
2022/06/09 13:25:21;;;;;;;3.55;1.80;;;;;;;;;;5076432;28;20040;-64
2022/06/09 13:27:48;;;;;;;5.63;2.10;;;;;;;;;;5087408;28;20567;-64
2022/06/09 13:30:20;;;;;;;8.55;2.05;;;;;;;;;;5104836;28;20392;-63
2022/06/09 13:32:48;;;;;;;4.75;1.80;;;;;;;;;;5101630;28;20044;-64
2022/06/09 13:35:26;;;;;;;8.35;2.75;;;;;;;;;;5086343;28;20136;-63
2022/06/09 13:38:02;;;;;;;5.85;2.63;;;;;;;;;;5084423;28;20044;-64
2022/06/09 13:40:39;;;;;;;4.20;2.38;;;;;;;;;;5075818;28;20110;-64
2022/06/09 13:43:14;;;;;;;5.75;2.20;;;;;;;;;;5091959;28;20421;-64
2022/06/09 13:45:40;;;;;;;9.10;1.95;;;;;;;;;;5096216;28;20047;-64
2022/06/09 13:48:25;;;;;;;4.47;1.90;;;;;;;;;;5093188;28;20062;-63
2022/06/09 13:51:06;;;;;;;4.28;1.80;;;;;;;;;;5082801;28;20040;-64
2022/06/09 13:53:39;;;;;;;5.43;2.35;;;;;;;;;;5070438;28;20289;-64
2022/06/09 13:56:07;;;;;;;5.78;2.13;;;;;;;;;;5094906;28;20089;-64
2022/06/09 13:58:33;;;;;;;5.78;2.40;;;;;;;;;;5093165;28;20040;-64
2022/06/09 14:01:01;;;;;;;6.63;2.08;;;;;;;;;;5093357;28;20040;-64
2022/06/09 14:03:28;;;;;;;4.75;2.17;;;;;;;;;;5088661;28;20046;-65
2022/06/09 14:06:08;;;;;;;5.10;2.40;;;;;;;;;;5085630;28;20040;-64
2022/06/09 14:08:36;;;;;;;6.47;2.17;;;;;;;;;;5086010;28;20040;-64
2022/06/09 14:11:03;;;;;;;5.90;1.90;;;;;;;;;;5090729;28;20059;-64
2022/06/09 14:13:29;;;;;;;7.10;2.25;;;;;;;;;;5103167;28;20092;-63
2022/06/09 14:15:55;;;;;;;4.45;2.10;;;;;;;;;;5090780;28;20078;-64
2022/06/09 14:18:23;;;;;;;6.85;2.60;;;;;;;;;;5085697;28;20497;-64
2022/06/09 14:20:49;;;;;;;9.70;3.05;;;;;;;;;;5093655;28;20498;-64
2022/06/09 14:23:24;;;;;;;9.55;3.10;;;;;;;;;;5086000;28;20074;-64
2022/06/09 14:25:53;;;;;;;5.47;2.42;;;;;;;;;;5086072;28;20079;-64
2022/06/09 14:28:19;;;;;;;10.02;2.15;;;;;;;;;;5096173;28;20039;-64
2022/06/09 14:30:45;;;;;;;6.47;2.30;;;;;;;;;;5091257;28;20476;-64
2022/06/09 14:33:12;;;;;;;5.90;2.30;;;;;;;;;;5091522;28;20074;-64
2022/06/09 14:35:39;;;;;;;7.97;3.25;;;;;;;;;;5085954;28;20048;-64
2022/06/09 14:38:05;;;;;;;11.25;3.13;;;;;;;;;;5087102;28;20032;-64
2022/06/09 14:40:35;;;;;;;4.75;2.30;;;;;;;;;;5089248;28;20077;-64
2022/06/09 14:43:01;;;;;;;5.43;2.33;;;;;;;;;;5086230;28;20501;-64
2022/06/09 14:45:28;;;;;;;10.18;3.30;;;;;;;;;;5087552;28;20075;-64
2022/06/09 14:47:54;;;;;;;6.85;2.15;;;;;;;;;;5101018;28;20564;-64
2022/06/09 14:50:22;;;;;;;4.78;2.47;;;;;;;;;;5099862;28;20036;-64
2022/06/09 14:52:48;;;;;;;6.50;2.10;;;;;;;;;;5088085;28;20378;-64
2022/06/09 14:55:16;;;;;;;4.15;1.95;;;;;;;;;;5089012;28;20063;-64
2022/06/09 14:57:42;;;;;;;8.90;4.53;;;;;;;;;;5086931;28;20105;-64
2022/06/09 15:00:14;;;;;;;4.13;2.53;;;;;;;;;;5088842;28;20040;-64
2022/06/09 15:02:40;;;;;;;6.60;2.15;;;;;;;;;;5095156;28;20045;-66
2022/06/09 15:05:08;;;;;;;6.90;2.60;;;;;;;;;;5099362;28;20047;-66
2022/06/09 15:07:34;;;;;;;8.93;3.17;;;;;;;;;;5090151;28;20040;-65
2022/06/09 15:10:01;;;;;;;4.47;1.92;;;;;;;;;;5085841;28;20232;-66
2022/06/09 15:12:27;;;;;;;4.75;2.33;;;;;;;;;;5079998;28;20409;-66
2022/06/09 15:14:53;;;;;;;5.93;2.10;;;;;;;;;;5085353;28;20108;-67
2022/06/09 15:17:19;;;;;;;6.70;2.13;;;;;;;;;;5085154;28;20035;-68